sensor_id;sensor_type;location;lat;lon;timestamp;P1;durP1;ratioP1;P2;durP2;ratioP2
1837;SDS011;918;50.796;6.772;2023-02-01T00:01:13;12.27;;;10.30;;
1837;SDS011;918;50.796;6.772;2023-02-01T00:03:38;13.80;;;10.10;;
1837;SDS011;918;50.796;6.772;2023-02-01T00:06:04;15.87;;;10.57;;
1837;SDS011;918;50.796;6.772;2023-02-01T00:08:29;14.13;;;10.67;;
1837;SDS011;918;50.796;6.772;2023-02-01T00:10:59;14.63;;;10.03;;
1837;SDS011;918;50.796;6.772;2023-02-01T00:13:32;12.10;;;8.80;;
1837;SDS011;918;50.796;6.772;2023-02-01T00:16:05;9.67;;;8.77;;
1837;SDS011;918;50.796;6.772;2023-02-01T00:18:31;14.83;;;9.00;;
1837;SDS011;918;50.796;6.772;2023-02-01T00:20:57;12.93;;;8.60;;
1837;SDS011;918;50.796;6.772;2023-02-01T00:23:23;11.27;;;7.50;;
1837;SDS011;918;50.796;6.772;2023-02-01T00:25:48;10.10;;;6.70;;
1837;SDS011;918;50.796;6.772;2023-02-01T00:28:14;10.70;;;6.60;;
1837;SDS011;918;50.796;6.772;2023-02-01T00:30:39;10.47;;;6.17;;
1837;SDS011;918;50.796;6.772;2023-02-01T00:33:04;8.40;;;5.60;;
1837;SDS011;918;50.796;6.772;2023-02-01T00:35:30;11.73;;;6.53;;
1837;SDS011;918;50.796;6.772;2023-02-01T00:37:55;14.07;;;5.47;;
1837;SDS011;918;50.796;6.772;2023-02-01T00:40:23;9.07;;;5.13;;
1837;SDS011;918;50.796;6.772;2023-02-01T00:42:49;8.20;;;5.87;;
1837;SDS011;918;50.796;6.772;2023-02-01T00:45:14;9.83;;;4.80;;
1837;SDS011;918;50.796;6.772;2023-02-01T00:47:39;9.70;;;4.70;;
1837;SDS011;918;50.796;6.772;2023-02-01T00:50:05;7.47;;;4.50;;
1837;SDS011;918;50.796;6.772;2023-02-01T00:52:31;9.80;;;5.00;;
1837;SDS011;918;50.796;6.772;2023-02-01T00:54:56;10.40;;;4.70;;
1837;SDS011;918;50.796;6.772;2023-02-01T00:57:21;9.80;;;5.13;;
1837;SDS011;918;50.796;6.772;2023-02-01T00:59:47;9.27;;;5.27;;
1837;SDS011;918;50.796;6.772;2023-02-01T01:02:12;7.40;;;4.83;;
1837;SDS011;918;50.796;6.772;2023-02-01T01:04:39;11.13;;;5.30;;
1837;SDS011;918;50.796;6.772;2023-02-01T01:07:04;7.30;;;5.17;;
1837;SDS011;918;50.796;6.772;2023-02-01T01:09:30;10.17;;;4.90;;
1837;SDS011;918;50.796;6.772;2023-02-01T01:11:55;8.83;;;4.77;;
1837;SDS011;918;50.796;6.772;2023-02-01T01:14:20;13.63;;;5.40;;
1837;SDS011;918;50.796;6.772;2023-02-01T01:16:45;5.60;;;4.63;;
1837;SDS011;918;50.796;6.772;2023-02-01T01:19:11;12.03;;;4.77;;
1837;SDS011;918;50.796;6.772;2023-02-01T01:21:36;9.43;;;6.30;;
1837;SDS011;918;50.796;6.772;2023-02-01T01:24:01;14.23;;;5.60;;
1837;SDS011;918;50.796;6.772;2023-02-01T01:26:27;9.30;;;6.30;;
1837;SDS011;918;50.796;6.772;2023-02-01T01:28:54;13.77;;;7.43;;
1837;SDS011;918;50.796;6.772;2023-02-01T01:31:20;13.10;;;6.70;;
1837;SDS011;918;50.796;6.772;2023-02-01T01:33:53;10.20;;;6.33;;
1837;SDS011;918;50.796;6.772;2023-02-01T01:36:20;17.27;;;6.87;;
1837;SDS011;918;50.796;6.772;2023-02-01T01:38:46;11.97;;;6.47;;
1837;SDS011;918;50.796;6.772;2023-02-01T01:41:14;11.97;;;7.33;;
1837;SDS011;918;50.796;6.772;2023-02-01T01:43:46;11.53;;;6.93;;
1837;SDS011;918;50.796;6.772;2023-02-01T01:46:20;10.03;;;6.60;;
1837;SDS011;918;50.796;6.772;2023-02-01T01:48:50;10.70;;;6.43;;
1837;SDS011;918;50.796;6.772;2023-02-01T01:51:19;13.13;;;8.20;;
1837;SDS011;918;50.796;6.772;2023-02-01T01:53:52;8.80;;;5.70;;
1837;SDS011;918;50.796;6.772;2023-02-01T01:56:21;10.77;;;6.60;;
1837;SDS011;918;50.796;6.772;2023-02-01T01:58:46;7.43;;;5.70;;
1837;SDS011;918;50.796;6.772;2023-02-01T02:01:12;7.70;;;5.77;;
1837;SDS011;918;50.796;6.772;2023-02-01T02:03:39;10.10;;;6.57;;
1837;SDS011;918;50.796;6.772;2023-02-01T02:06:10;8.10;;;5.47;;
1837;SDS011;918;50.796;6.772;2023-02-01T02:08:40;8.37;;;6.57;;
1837;SDS011;918;50.796;6.772;2023-02-01T02:11:05;15.50;;;7.40;;
1837;SDS011;918;50.796;6.772;2023-02-01T02:13:32;15.67;;;7.07;;
1837;SDS011;918;50.796;6.772;2023-02-01T02:18:44;12.60;;;6.57;;
1837;SDS011;918;50.796;6.772;2023-02-01T02:22:01;10.17;;;7.70;;
1837;SDS011;918;50.796;6.772;2023-02-01T02:30:40;10.73;;;7.07;;
1837;SDS011;918;50.796;6.772;2023-02-01T02:35:46;8.80;;;6.70;;
1837;SDS011;918;50.796;6.772;2023-02-01T02:47:27;12.37;;;6.17;;
1837;SDS011;918;50.796;6.772;2023-02-01T02:50:05;8.73;;;6.07;;
1837;SDS011;918;50.796;6.772;2023-02-01T02:53:02;12.90;;;5.93;;
1837;SDS011;918;50.796;6.772;2023-02-01T02:55:55;10.30;;;6.00;;
1837;SDS011;918;50.796;6.772;2023-02-01T02:58:40;9.67;;;5.30;;
1837;SDS011;918;50.796;6.772;2023-02-01T03:01:25;9.30;;;6.10;;
1837;SDS011;918;50.796;6.772;2023-02-01T03:04:09;15.80;;;5.20;;
1837;SDS011;918;50.796;6.772;2023-02-01T03:06:34;13.90;;;5.60;;
1837;SDS011;918;50.796;6.772;2023-02-01T03:08:59;12.30;;;5.47;;
1837;SDS011;918;50.796;6.772;2023-02-01T03:11:27;11.20;;;6.20;;
1837;SDS011;918;50.796;6.772;2023-02-01T03:14:13;10.83;;;6.23;;
1837;SDS011;918;50.796;6.772;2023-02-01T03:19:18;7.20;;;5.40;;
1837;SDS011;918;50.796;6.772;2023-02-01T03:21:48;14.27;;;6.30;;
1837;SDS011;918;50.796;6.772;2023-02-01T03:24:16;14.10;;;6.07;;
1837;SDS011;918;50.796;6.772;2023-02-01T03:26:48;10.47;;;5.90;;
1837;SDS011;918;50.796;6.772;2023-02-01T03:29:22;8.93;;;5.20;;
1837;SDS011;918;50.796;6.772;2023-02-01T03:31:49;12.00;;;5.67;;
1837;SDS011;918;50.796;6.772;2023-02-01T03:34:15;10.80;;;5.73;;
1837;SDS011;918;50.796;6.772;2023-02-01T03:36:41;11.37;;;6.07;;
1837;SDS011;918;50.796;6.772;2023-02-01T03:39:17;13.60;;;5.20;;
1837;SDS011;918;50.796;6.772;2023-02-01T03:41:50;9.57;;;5.30;;
1837;SDS011;918;50.796;6.772;2023-02-01T03:47:08;12.80;;;7.17;;
1837;SDS011;918;50.796;6.772;2023-02-01T03:49:37;9.40;;;6.00;;
1837;SDS011;918;50.796;6.772;2023-02-01T03:52:05;12.90;;;5.60;;
1837;SDS011;918;50.796;6.772;2023-02-01T03:54:33;13.27;;;6.83;;
1837;SDS011;918;50.796;6.772;2023-02-01T03:56:59;15.70;;;7.43;;
1837;SDS011;918;50.796;6.772;2023-02-01T03:59:27;15.03;;;6.67;;
1837;SDS011;918;50.796;6.772;2023-02-01T04:01:52;15.10;;;6.73;;
1837;SDS011;918;50.796;6.772;2023-02-01T04:04:18;10.37;;;7.20;;
1837;SDS011;918;50.796;6.772;2023-02-01T04:06:46;14.20;;;6.53;;
1837;SDS011;918;50.796;6.772;2023-02-01T04:09:12;11.67;;;7.60;;
1837;SDS011;918;50.796;6.772;2023-02-01T04:11:38;9.93;;;6.10;;
1837;SDS011;918;50.796;6.772;2023-02-01T04:14:03;13.20;;;6.93;;
1837;SDS011;918;50.796;6.772;2023-02-01T04:16:29;13.03;;;6.07;;
1837;SDS011;918;50.796;6.772;2023-02-01T04:18:56;12.00;;;6.87;;
1837;SDS011;918;50.796;6.772;2023-02-01T04:21:22;13.20;;;8.17;;
1837;SDS011;918;50.796;6.772;2023-02-01T04:23:47;8.93;;;6.10;;
1837;SDS011;918;50.796;6.772;2023-02-01T04:26:13;13.93;;;5.30;;
1837;SDS011;918;50.796;6.772;2023-02-01T04:28:38;10.87;;;5.67;;
1837;SDS011;918;50.796;6.772;2023-02-01T04:31:03;20.40;;;7.07;;
1837;SDS011;918;50.796;6.772;2023-02-01T04:33:28;9.50;;;5.73;;
1837;SDS011;918;50.796;6.772;2023-02-01T04:35:54;8.70;;;5.87;;
1837;SDS011;918;50.796;6.772;2023-02-01T04:38:19;10.07;;;5.40;;
1837;SDS011;918;50.796;6.772;2023-02-01T04:40:46;9.37;;;5.63;;
1837;SDS011;918;50.796;6.772;2023-02-01T04:43:12;10.70;;;5.40;;
1837;SDS011;918;50.796;6.772;2023-02-01T04:45:37;9.23;;;5.40;;
1837;SDS011;918;50.796;6.772;2023-02-01T04:48:03;16.33;;;6.30;;
1837;SDS011;918;50.796;6.772;2023-02-01T04:50:28;16.60;;;5.80;;
1837;SDS011;918;50.796;6.772;2023-02-01T04:52:53;12.50;;;6.87;;
1837;SDS011;918;50.796;6.772;2023-02-01T04:55:19;7.93;;;5.03;;
1837;SDS011;918;50.796;6.772;2023-02-01T04:57:44;11.50;;;5.10;;
1837;SDS011;918;50.796;6.772;2023-02-01T05:00:09;15.13;;;6.00;;
1837;SDS011;918;50.796;6.772;2023-02-01T05:02:35;12.37;;;4.83;;
1837;SDS011;918;50.796;6.772;2023-02-01T05:05:01;9.57;;;5.63;;
1837;SDS011;918;50.796;6.772;2023-02-01T05:07:26;14.27;;;4.67;;
1837;SDS011;918;50.796;6.772;2023-02-01T05:09:51;11.13;;;4.93;;
1837;SDS011;918;50.796;6.772;2023-02-01T05:12:17;8.17;;;4.50;;
1837;SDS011;918;50.796;6.772;2023-02-01T05:15:00;9.53;;;5.23;;
1837;SDS011;918;50.796;6.772;2023-02-01T05:17:26;10.90;;;4.13;;
1837;SDS011;918;50.796;6.772;2023-02-01T05:19:51;10.17;;;5.23;;
1837;SDS011;918;50.796;6.772;2023-02-01T05:22:16;12.07;;;5.53;;
1837;SDS011;918;50.796;6.772;2023-02-01T05:24:42;12.07;;;4.20;;
1837;SDS011;918;50.796;6.772;2023-02-01T05:27:07;11.00;;;5.50;;
1837;SDS011;918;50.796;6.772;2023-02-01T05:29:32;14.10;;;4.60;;
1837;SDS011;918;50.796;6.772;2023-02-01T05:31:57;13.03;;;4.37;;
1837;SDS011;918;50.796;6.772;2023-02-01T05:34:23;9.53;;;3.50;;
1837;SDS011;918;50.796;6.772;2023-02-01T05:36:48;7.00;;;3.80;;
1837;SDS011;918;50.796;6.772;2023-02-01T05:39:13;9.50;;;3.97;;
1837;SDS011;918;50.796;6.772;2023-02-01T05:41:38;10.27;;;3.90;;
1837;SDS011;918;50.796;6.772;2023-02-01T05:44:04;7.47;;;3.40;;
1837;SDS011;918;50.796;6.772;2023-02-01T05:46:32;6.73;;;3.17;;
1837;SDS011;918;50.796;6.772;2023-02-01T05:48:57;7.10;;;3.57;;
1837;SDS011;918;50.796;6.772;2023-02-01T05:51:22;7.40;;;3.80;;
1837;SDS011;918;50.796;6.772;2023-02-01T05:53:47;8.80;;;3.77;;
1837;SDS011;918;50.796;6.772;2023-02-01T05:56:13;13.77;;;3.40;;
1837;SDS011;918;50.796;6.772;2023-02-01T05:58:38;6.87;;;3.50;;
1837;SDS011;918;50.796;6.772;2023-02-01T06:01:03;10.23;;;3.97;;
1837;SDS011;918;50.796;6.772;2023-02-01T06:03:29;9.70;;;3.93;;
1837;SDS011;918;50.796;6.772;2023-02-01T06:05:54;11.87;;;3.50;;
1837;SDS011;918;50.796;6.772;2023-02-01T06:08:19;9.17;;;4.33;;
1837;SDS011;918;50.796;6.772;2023-02-01T06:10:45;6.87;;;3.27;;
1837;SDS011;918;50.796;6.772;2023-02-01T06:13:10;8.10;;;3.53;;
1837;SDS011;918;50.796;6.772;2023-02-01T06:15:35;6.50;;;3.43;;
1837;SDS011;918;50.796;6.772;2023-02-01T06:18:02;6.23;;;5.13;;
1837;SDS011;918;50.796;6.772;2023-02-01T06:20:28;10.60;;;4.17;;
1837;SDS011;918;50.796;6.772;2023-02-01T06:22:53;9.37;;;4.17;;
1837;SDS011;918;50.796;6.772;2023-02-01T06:25:18;12.37;;;4.70;;
1837;SDS011;918;50.796;6.772;2023-02-01T06:27:44;13.70;;;4.77;;
1837;SDS011;918;50.796;6.772;2023-02-01T06:30:10;8.80;;;4.10;;
1837;SDS011;918;50.796;6.772;2023-02-01T06:32:38;8.57;;;4.10;;
1837;SDS011;918;50.796;6.772;2023-02-01T06:35:05;10.00;;;4.80;;
1837;SDS011;918;50.796;6.772;2023-02-01T06:37:32;6.87;;;4.07;;
1837;SDS011;918;50.796;6.772;2023-02-01T06:39:57;9.60;;;3.90;;
1837;SDS011;918;50.796;6.772;2023-02-01T06:42:23;7.10;;;3.70;;
1837;SDS011;918;50.796;6.772;2023-02-01T06:44:48;9.60;;;3.67;;
1837;SDS011;918;50.796;6.772;2023-02-01T06:47:14;9.20;;;4.00;;
1837;SDS011;918;50.796;6.772;2023-02-01T06:49:39;6.60;;;3.63;;
1837;SDS011;918;50.796;6.772;2023-02-01T06:52:05;12.60;;;4.63;;
1837;SDS011;918;50.796;6.772;2023-02-01T06:54:33;8.23;;;4.17;;
1837;SDS011;918;50.796;6.772;2023-02-01T06:56:59;12.37;;;4.70;;
1837;SDS011;918;50.796;6.772;2023-02-01T06:59:24;11.67;;;4.53;;
1837;SDS011;918;50.796;6.772;2023-02-01T07:01:50;13.47;;;4.60;;
1837;SDS011;918;50.796;6.772;2023-02-01T07:04:15;11.17;;;4.10;;
1837;SDS011;918;50.796;6.772;2023-02-01T07:06:40;9.33;;;3.80;;
1837;SDS011;918;50.796;6.772;2023-02-01T07:09:06;7.20;;;3.70;;
1837;SDS011;918;50.796;6.772;2023-02-01T07:11:32;10.43;;;4.10;;
1837;SDS011;918;50.796;6.772;2023-02-01T07:13:58;8.30;;;5.10;;
1837;SDS011;918;50.796;6.772;2023-02-01T07:16:23;9.70;;;3.97;;
1837;SDS011;918;50.796;6.772;2023-02-01T07:18:50;9.73;;;4.30;;
1837;SDS011;918;50.796;6.772;2023-02-01T07:21:16;10.90;;;4.83;;
1837;SDS011;918;50.796;6.772;2023-02-01T07:23:41;9.50;;;4.50;;
1837;SDS011;918;50.796;6.772;2023-02-01T07:26:07;11.70;;;4.40;;
1837;SDS011;918;50.796;6.772;2023-02-01T07:28:33;16.30;;;4.37;;
1837;SDS011;918;50.796;6.772;2023-02-01T07:31:06;16.57;;;6.93;;
1837;SDS011;918;50.796;6.772;2023-02-01T07:33:33;12.87;;;4.90;;
1837;SDS011;918;50.796;6.772;2023-02-01T07:36:00;15.07;;;4.53;;
1837;SDS011;918;50.796;6.772;2023-02-01T07:38:27;8.80;;;4.87;;
1837;SDS011;918;50.796;6.772;2023-02-01T07:40:56;10.90;;;4.23;;
1837;SDS011;918;50.796;6.772;2023-02-01T07:43:22;11.93;;;5.57;;
1837;SDS011;918;50.796;6.772;2023-02-01T07:45:51;7.83;;;3.90;;
1837;SDS011;918;50.796;6.772;2023-02-01T07:48:17;10.70;;;3.63;;
1837;SDS011;918;50.796;6.772;2023-02-01T07:50:43;13.47;;;4.90;;
1837;SDS011;918;50.796;6.772;2023-02-01T07:53:08;14.33;;;4.77;;
1837;SDS011;918;50.796;6.772;2023-02-01T07:55:33;8.30;;;4.83;;
1837;SDS011;918;50.796;6.772;2023-02-01T07:57:59;12.90;;;4.90;;
1837;SDS011;918;50.796;6.772;2023-02-01T08:00:25;12.07;;;4.67;;
1837;SDS011;918;50.796;6.772;2023-02-01T08:03:09;10.83;;;5.50;;
1837;SDS011;918;50.796;6.772;2023-02-01T08:05:35;8.57;;;4.73;;
1837;SDS011;918;50.796;6.772;2023-02-01T08:08:01;11.90;;;4.57;;
1837;SDS011;918;50.796;6.772;2023-02-01T08:10:27;17.13;;;3.80;;
1837;SDS011;918;50.796;6.772;2023-02-01T08:12:57;9.70;;;4.40;;
1837;SDS011;918;50.796;6.772;2023-02-01T08:15:23;8.43;;;4.30;;
1837;SDS011;918;50.796;6.772;2023-02-01T08:17:48;9.20;;;4.27;;
1837;SDS011;918;50.796;6.772;2023-02-01T08:20:17;7.87;;;4.07;;
1837;SDS011;918;50.796;6.772;2023-02-01T08:22:53;11.47;;;5.47;;
1837;SDS011;918;50.796;6.772;2023-02-01T08:25:19;10.53;;;5.70;;
1837;SDS011;918;50.796;6.772;2023-02-01T08:27:45;8.50;;;3.70;;
1837;SDS011;918;50.796;6.772;2023-02-01T08:30:10;11.10;;;4.13;;
1837;SDS011;918;50.796;6.772;2023-02-01T08:32:36;13.10;;;4.37;;
1837;SDS011;918;50.796;6.772;2023-02-01T08:35:02;7.67;;;3.50;;
1837;SDS011;918;50.796;6.772;2023-02-01T08:37:28;8.60;;;4.10;;
1837;SDS011;918;50.796;6.772;2023-02-01T08:39:53;11.63;;;3.80;;
1837;SDS011;918;50.796;6.772;2023-02-01T08:42:18;7.93;;;3.60;;
1837;SDS011;918;50.796;6.772;2023-02-01T08:45:03;11.47;;;4.10;;
1837;SDS011;918;50.796;6.772;2023-02-01T08:47:29;12.23;;;4.20;;
1837;SDS011;918;50.796;6.772;2023-02-01T08:49:55;11.70;;;5.20;;
1837;SDS011;918;50.796;6.772;2023-02-01T08:52:20;7.63;;;3.20;;
1837;SDS011;918;50.796;6.772;2023-02-01T08:54:45;7.50;;;3.47;;
1837;SDS011;918;50.796;6.772;2023-02-01T08:57:11;7.30;;;4.00;;
1837;SDS011;918;50.796;6.772;2023-02-01T08:59:36;8.43;;;4.67;;
1837;SDS011;918;50.796;6.772;2023-02-01T09:02:01;8.50;;;4.20;;
1837;SDS011;918;50.796;6.772;2023-02-01T09:04:27;8.43;;;3.70;;
1837;SDS011;918;50.796;6.772;2023-02-01T09:06:52;12.23;;;4.17;;
1837;SDS011;918;50.796;6.772;2023-02-01T09:09:20;11.27;;;5.63;;
1837;SDS011;918;50.796;6.772;2023-02-01T09:11:46;7.73;;;3.63;;
1837;SDS011;918;50.796;6.772;2023-02-01T09:14:11;15.07;;;4.13;;
1837;SDS011;918;50.796;6.772;2023-02-01T09:16:36;11.30;;;3.90;;
1837;SDS011;918;50.796;6.772;2023-02-01T09:19:01;8.93;;;3.40;;
1837;SDS011;918;50.796;6.772;2023-02-01T09:21:27;5.90;;;4.03;;
1837;SDS011;918;50.796;6.772;2023-02-01T09:23:52;7.07;;;3.63;;
1837;SDS011;918;50.796;6.772;2023-02-01T09:26:18;7.13;;;3.30;;
1837;SDS011;918;50.796;6.772;2023-02-01T09:28:43;11.07;;;4.13;;
1837;SDS011;918;50.796;6.772;2023-02-01T09:31:08;13.20;;;4.80;;
1837;SDS011;918;50.796;6.772;2023-02-01T09:33:33;14.07;;;4.37;;
1837;SDS011;918;50.796;6.772;2023-02-01T09:35:59;10.13;;;4.20;;
1837;SDS011;918;50.796;6.772;2023-02-01T09:38:25;10.37;;;4.80;;
1837;SDS011;918;50.796;6.772;2023-02-01T09:40:52;7.37;;;3.37;;
1837;SDS011;918;50.796;6.772;2023-02-01T09:48:19;10.97;;;3.63;;
1837;SDS011;918;50.796;6.772;2023-02-01T09:50:54;17.57;;;4.50;;
1837;SDS011;918;50.796;6.772;2023-02-01T09:53:29;8.80;;;4.10;;
1837;SDS011;918;50.796;6.772;2023-02-01T09:56:00;11.93;;;4.30;;
1837;SDS011;918;50.796;6.772;2023-02-01T10:00:55;13.07;;;4.23;;
1837;SDS011;918;50.796;6.772;2023-02-01T10:03:29;10.57;;;3.20;;
1837;SDS011;918;50.796;6.772;2023-02-01T10:11:36;9.90;;;3.60;;
1837;SDS011;918;50.796;6.772;2023-02-01T10:14:41;11.77;;;3.83;;
1837;SDS011;918;50.796;6.772;2023-02-01T10:22:54;11.50;;;3.87;;
1837;SDS011;918;50.796;6.772;2023-02-01T10:25:51;7.83;;;3.30;;
1837;SDS011;918;50.796;6.772;2023-02-01T10:28:19;11.67;;;3.60;;
1837;SDS011;918;50.796;6.772;2023-02-01T10:30:47;9.63;;;3.60;;
1837;SDS011;918;50.796;6.772;2023-02-01T10:33:15;15.43;;;3.63;;
1837;SDS011;918;50.796;6.772;2023-02-01T10:35:47;9.07;;;4.13;;
1837;SDS011;918;50.796;6.772;2023-02-01T10:38:29;16.20;;;4.77;;
1837;SDS011;918;50.796;6.772;2023-02-01T10:40:57;9.30;;;3.93;;
1837;SDS011;918;50.796;6.772;2023-02-01T10:43:26;11.90;;;3.60;;
1837;SDS011;918;50.796;6.772;2023-02-01T10:45:51;10.77;;;4.03;;
1837;SDS011;918;50.796;6.772;2023-02-01T10:48:17;9.97;;;3.67;;
1837;SDS011;918;50.796;6.772;2023-02-01T10:51:02;6.10;;;3.70;;
1837;SDS011;918;50.796;6.772;2023-02-01T10:54:00;11.30;;;4.20;;
1837;SDS011;918;50.796;6.772;2023-02-01T10:56:30;9.80;;;3.60;;
1837;SDS011;918;50.796;6.772;2023-02-01T10:59:00;10.60;;;3.90;;
1837;SDS011;918;50.796;6.772;2023-02-01T11:01:39;7.53;;;3.60;;
1837;SDS011;918;50.796;6.772;2023-02-01T11:04:24;8.67;;;3.80;;
1837;SDS011;918;50.796;6.772;2023-02-01T11:06:52;8.90;;;4.17;;
1837;SDS011;918;50.796;6.772;2023-02-01T11:09:19;8.70;;;3.97;;
1837;SDS011;918;50.796;6.772;2023-02-01T11:16:52;12.87;;;4.00;;
1837;SDS011;918;50.796;6.772;2023-02-01T11:19:25;11.27;;;3.73;;
1837;SDS011;918;50.796;6.772;2023-02-01T11:21:51;7.37;;;3.47;;
1837;SDS011;918;50.796;6.772;2023-02-01T11:24:31;7.80;;;4.37;;
1837;SDS011;918;50.796;6.772;2023-02-01T11:27:00;9.77;;;3.50;;
1837;SDS011;918;50.796;6.772;2023-02-01T11:29:29;11.80;;;3.50;;
1837;SDS011;918;50.796;6.772;2023-02-01T11:32:02;6.80;;;3.20;;
1837;SDS011;918;50.796;6.772;2023-02-01T11:34:33;10.80;;;3.50;;
1837;SDS011;918;50.796;6.772;2023-02-01T11:37:21;8.60;;;3.60;;
1837;SDS011;918;50.796;6.772;2023-02-01T11:39:55;13.73;;;3.83;;
1837;SDS011;918;50.796;6.772;2023-02-01T11:42:21;10.83;;;3.20;;
1837;SDS011;918;50.796;6.772;2023-02-01T11:44:47;6.73;;;3.07;;
1837;SDS011;918;50.796;6.772;2023-02-01T11:47:26;5.50;;;2.97;;
1837;SDS011;918;50.796;6.772;2023-02-01T11:50:00;9.60;;;3.13;;
1837;SDS011;918;50.796;6.772;2023-02-01T11:55:23;9.07;;;3.77;;
1837;SDS011;918;50.796;6.772;2023-02-01T11:58:11;12.40;;;3.60;;
1837;SDS011;918;50.796;6.772;2023-02-01T12:08:59;5.27;;;3.50;;
1837;SDS011;918;50.796;6.772;2023-02-01T12:26:12;8.87;;;3.53;;
1837;SDS011;918;50.796;6.772;2023-02-01T12:34:32;8.17;;;3.60;;
1837;SDS011;918;50.796;6.772;2023-02-01T12:40:17;7.77;;;3.40;;
1837;SDS011;918;50.796;6.772;2023-02-01T12:43:03;6.30;;;2.70;;
1837;SDS011;918;50.796;6.772;2023-02-01T12:51:08;8.70;;;3.37;;
1837;SDS011;918;50.796;6.772;2023-02-01T12:53:42;13.67;;;3.93;;
1837;SDS011;918;50.796;6.772;2023-02-01T12:56:11;8.37;;;2.80;;
1837;SDS011;918;50.796;6.772;2023-02-01T12:58:50;7.20;;;3.40;;
1837;SDS011;918;50.796;6.772;2023-02-01T13:01:21;7.30;;;3.67;;
1837;SDS011;918;50.796;6.772;2023-02-01T13:06:50;6.50;;;3.13;;
1837;SDS011;918;50.796;6.772;2023-02-01T13:09:29;7.13;;;3.50;;
1837;SDS011;918;50.796;6.772;2023-02-01T13:12:22;6.60;;;3.97;;
1837;SDS011;918;50.796;6.772;2023-02-01T13:14:53;11.63;;;4.00;;
1837;SDS011;918;50.796;6.772;2023-02-01T13:17:24;10.13;;;4.03;;
1837;SDS011;918;50.796;6.772;2023-02-01T13:19:57;12.17;;;5.30;;
1837;SDS011;918;50.796;6.772;2023-02-01T13:22:27;7.90;;;3.60;;
1837;SDS011;918;50.796;6.772;2023-02-01T13:25:16;13.17;;;4.03;;
1837;SDS011;918;50.796;6.772;2023-02-01T13:27:46;8.33;;;4.60;;
1837;SDS011;918;50.796;6.772;2023-02-01T13:30:14;7.50;;;4.20;;
1837;SDS011;918;50.796;6.772;2023-02-01T13:39:06;11.50;;;4.00;;
1837;SDS011;918;50.796;6.772;2023-02-01T13:41:52;7.23;;;3.70;;
1837;SDS011;918;50.796;6.772;2023-02-01T13:44:44;7.50;;;3.43;;
1837;SDS011;918;50.796;6.772;2023-02-01T13:47:32;12.00;;;3.90;;
1837;SDS011;918;50.796;6.772;2023-02-01T13:49:59;10.97;;;3.53;;
1837;SDS011;918;50.796;6.772;2023-02-01T13:52:36;7.50;;;3.60;;
1837;SDS011;918;50.796;6.772;2023-02-01T13:57:39;6.80;;;3.23;;
1837;SDS011;918;50.796;6.772;2023-02-01T14:00:22;10.47;;;3.60;;
1837;SDS011;918;50.796;6.772;2023-02-01T14:11:02;7.33;;;3.40;;
1837;SDS011;918;50.796;6.772;2023-02-01T14:13:40;6.50;;;3.40;;
1837;SDS011;918;50.796;6.772;2023-02-01T14:23:40;9.70;;;3.63;;
1837;SDS011;918;50.796;6.772;2023-02-01T14:26:08;6.87;;;3.00;;
1837;SDS011;918;50.796;6.772;2023-02-01T14:28:36;8.50;;;3.07;;
1837;SDS011;918;50.796;6.772;2023-02-01T14:34:08;13.57;;;3.17;;
1837;SDS011;918;50.796;6.772;2023-02-01T14:36:54;6.37;;;3.50;;
1837;SDS011;918;50.796;6.772;2023-02-01T14:39:25;4.30;;;3.10;;
1837;SDS011;918;50.796;6.772;2023-02-01T14:41:53;6.47;;;3.00;;
1837;SDS011;918;50.796;6.772;2023-02-01T14:44:25;7.93;;;3.20;;
1837;SDS011;918;50.796;6.772;2023-02-01T14:52:36;5.50;;;2.33;;
1837;SDS011;918;50.796;6.772;2023-02-01T14:55:09;4.80;;;2.93;;
1837;SDS011;918;50.796;6.772;2023-02-01T14:57:37;4.73;;;2.67;;
1837;SDS011;918;50.796;6.772;2023-02-01T15:00:11;11.53;;;3.30;;
1837;SDS011;918;50.796;6.772;2023-02-01T15:02:42;7.10;;;2.60;;
1837;SDS011;918;50.796;6.772;2023-02-01T15:05:25;6.93;;;2.87;;
1837;SDS011;918;50.796;6.772;2023-02-01T15:07:55;8.40;;;2.70;;
1837;SDS011;918;50.796;6.772;2023-02-01T15:10:23;7.40;;;3.17;;
1837;SDS011;918;50.796;6.772;2023-02-01T15:12:49;7.87;;;3.40;;
1837;SDS011;918;50.796;6.772;2023-02-01T15:17:55;7.67;;;3.00;;
1837;SDS011;918;50.796;6.772;2023-02-01T15:20:40;6.43;;;2.57;;
1837;SDS011;918;50.796;6.772;2023-02-01T15:23:06;5.63;;;2.80;;
1837;SDS011;918;50.796;6.772;2023-02-01T15:25:45;4.23;;;2.30;;
1837;SDS011;918;50.796;6.772;2023-02-01T15:28:12;6.30;;;2.77;;
1837;SDS011;918;50.796;6.772;2023-02-01T15:30:39;5.40;;;2.93;;
1837;SDS011;918;50.796;6.772;2023-02-01T15:33:22;5.47;;;2.10;;
1837;SDS011;918;50.796;6.772;2023-02-01T15:35:51;7.40;;;2.80;;
1837;SDS011;918;50.796;6.772;2023-02-01T15:38:29;6.27;;;3.63;;
1837;SDS011;918;50.796;6.772;2023-02-01T15:41:04;5.57;;;2.70;;
1837;SDS011;918;50.796;6.772;2023-02-01T15:46:23;7.83;;;2.80;;
1837;SDS011;918;50.796;6.772;2023-02-01T15:48:54;8.10;;;3.00;;
1837;SDS011;918;50.796;6.772;2023-02-01T15:51:26;3.70;;;2.90;;
1837;SDS011;918;50.796;6.772;2023-02-01T15:56:24;9.23;;;2.77;;
1837;SDS011;918;50.796;6.772;2023-02-01T15:58:56;6.57;;;3.30;;
1837;SDS011;918;50.796;6.772;2023-02-01T16:01:23;5.57;;;2.80;;
1837;SDS011;918;50.796;6.772;2023-02-01T16:03:48;7.70;;;2.63;;
1837;SDS011;918;50.796;6.772;2023-02-01T16:08:49;6.53;;;2.20;;
1837;SDS011;918;50.796;6.772;2023-02-01T16:11:27;8.60;;;2.97;;
1837;SDS011;918;50.796;6.772;2023-02-01T16:13:55;8.13;;;2.93;;
1837;SDS011;918;50.796;6.772;2023-02-01T16:16:21;5.60;;;3.10;;
1837;SDS011;918;50.796;6.772;2023-02-01T16:18:46;4.90;;;2.87;;
1837;SDS011;918;50.796;6.772;2023-02-01T16:21:12;5.83;;;2.50;;
1837;SDS011;918;50.796;6.772;2023-02-01T16:23:37;5.90;;;3.40;;
1837;SDS011;918;50.796;6.772;2023-02-01T16:26:03;7.37;;;2.97;;
1837;SDS011;918;50.796;6.772;2023-02-01T16:28:29;7.60;;;3.60;;
1837;SDS011;918;50.796;6.772;2023-02-01T16:30:54;5.73;;;2.83;;
1837;SDS011;918;50.796;6.772;2023-02-01T16:33:20;6.30;;;2.73;;
1837;SDS011;918;50.796;6.772;2023-02-01T16:35:47;5.03;;;2.63;;
1837;SDS011;918;50.796;6.772;2023-02-01T16:38:17;4.57;;;2.43;;
1837;SDS011;918;50.796;6.772;2023-02-01T16:40:46;7.73;;;3.17;;
1837;SDS011;918;50.796;6.772;2023-02-01T16:43:19;4.83;;;2.90;;
1837;SDS011;918;50.796;6.772;2023-02-01T16:45:46;12.70;;;4.30;;
1837;SDS011;918;50.796;6.772;2023-02-01T16:48:19;8.27;;;3.50;;
1837;SDS011;918;50.796;6.772;2023-02-01T16:50:49;11.40;;;2.67;;
1837;SDS011;918;50.796;6.772;2023-02-01T16:53:17;8.50;;;2.93;;
1837;SDS011;918;50.796;6.772;2023-02-01T16:55:43;6.73;;;3.33;;
1837;SDS011;918;50.796;6.772;2023-02-01T16:58:08;4.47;;;3.60;;
1837;SDS011;918;50.796;6.772;2023-02-01T17:00:34;6.83;;;4.10;;
1837;SDS011;918;50.796;6.772;2023-02-01T17:03:01;6.23;;;4.10;;
1837;SDS011;918;50.796;6.772;2023-02-01T17:05:27;11.93;;;4.00;;
1837;SDS011;918;50.796;6.772;2023-02-01T17:07:53;9.47;;;3.73;;
1837;SDS011;918;50.796;6.772;2023-02-01T17:10:22;6.20;;;3.60;;
1837;SDS011;918;50.796;6.772;2023-02-01T17:12:50;9.70;;;3.70;;
1837;SDS011;918;50.796;6.772;2023-02-01T17:15:15;6.53;;;3.67;;
1837;SDS011;918;50.796;6.772;2023-02-01T17:17:40;7.50;;;3.80;;
1837;SDS011;918;50.796;6.772;2023-02-01T17:20:09;12.67;;;4.23;;
1837;SDS011;918;50.796;6.772;2023-02-01T17:22:43;5.83;;;3.20;;
1837;SDS011;918;50.796;6.772;2023-02-01T17:25:16;8.17;;;4.70;;
1837;SDS011;918;50.796;6.772;2023-02-01T17:27:42;9.30;;;3.53;;
1837;SDS011;918;50.796;6.772;2023-02-01T17:30:09;9.80;;;5.47;;
1837;SDS011;918;50.796;6.772;2023-02-01T17:32:35;11.17;;;4.70;;
1837;SDS011;918;50.796;6.772;2023-02-01T17:35:01;13.73;;;5.40;;
1837;SDS011;918;50.796;6.772;2023-02-01T17:39:53;9.80;;;4.23;;
1837;SDS011;918;50.796;6.772;2023-02-01T17:42:18;10.40;;;4.43;;
1837;SDS011;918;50.796;6.772;2023-02-01T17:44:44;5.20;;;4.43;;
1837;SDS011;918;50.796;6.772;2023-02-01T17:47:09;6.90;;;5.17;;
1837;SDS011;918;50.796;6.772;2023-02-01T17:49:34;8.43;;;5.00;;
1837;SDS011;918;50.796;6.772;2023-02-01T17:52:00;6.20;;;4.77;;
1837;SDS011;918;50.796;6.772;2023-02-01T17:54:25;6.27;;;4.70;;